Time;durP1;ratioP1;P1;durP2;ratioP2;P2;SDS_P1;SDS_P2;PMS_P1;PMS_P2;Temp;Humidity;BMP_temperature;BMP_pressure;BME280_temperature;BME280_humidity;BME280_pressure;Samples;Min_cycle;Max_cycle;Signal;HPM_P1;HPM_P2
2021/11/26 00:01:46;;;;;;;73.37;15.93;;;;;;;;;;5031444;28;20448;-96
2021/11/26 00:04:16;;;;;;;73.27;16.00;;;;;;;;;;5036616;28;20471;-94
2021/11/26 00:06:44;;;;;;;74.67;15.70;;;;;;;;;;5039635;28;20435;-96
2021/11/26 00:09:13;;;;;;;74.50;16.03;;;;;;;;;;5031935;28;20451;-96
2021/11/26 00:11:41;;;;;;;76.40;16.13;;;;;;;;;;5032102;28;20446;-96
2021/11/26 00:14:14;;;;;;;74.37;15.77;;;;;;;;;;5038121;28;20512;-96
2021/11/26 00:16:56;;;;;;;73.90;16.00;;;;;;;;;;5038478;28;20440;-96
2021/11/26 00:19:29;;;;;;;73.07;15.03;;;;;;;;;;5041653;28;20880;-96
2021/11/26 00:27:39;;;;;;;74.27;16.10;;;;;;;;;;5106256;22;20518;-95
2021/11/26 00:30:24;;;;;;;73.53;15.53;;;;;;;;;;5276305;22;20480;-96
2021/11/26 00:32:54;;;;;;;72.50;15.17;;;;;;;;;;5122758;22;20477;-96
2021/11/26 00:35:32;;;;;;;72.67;15.97;;;;;;;;;;5073084;28;20458;-96
2021/11/26 00:38:06;;;;;;;73.40;15.20;;;;;;;;;;5498331;22;21077;-96
2021/11/26 00:43:15;;;;;;;72.37;15.03;;;;;;;;;;5053329;28;20538;-96
2021/11/26 00:46:01;;;;;;;73.00;14.83;;;;;;;;;;5052395;28;20437;-96
2021/11/26 00:48:27;;;;;;;74.30;15.63;;;;;;;;;;5046018;28;20465;-94
2021/11/26 00:51:04;;;;;;;78.47;16.03;;;;;;;;;;5049580;28;20455;-96
2021/11/26 00:53:31;;;;;;;73.63;15.30;;;;;;;;;;5055988;28;20490;-96
2021/11/26 00:56:21;;;;;;;77.27;15.60;;;;;;;;;;5046208;28;20423;-96
2021/11/26 00:59:03;;;;;;;72.60;14.97;;;;;;;;;;5048230;28;20450;-96
2021/11/26 01:01:30;;;;;;;76.27;16.73;;;;;;;;;;5050207;28;20538;-96
2021/11/26 01:03:56;;;;;;;74.37;16.00;;;;;;;;;;5053668;28;20609;-96
2021/11/26 01:06:23;;;;;;;73.43;15.23;;;;;;;;;;5042611;28;20444;-96
2021/11/26 01:08:50;;;;;;;75.77;15.60;;;;;;;;;;5052083;28;20447;-93
2021/11/26 01:11:17;;;;;;;76.50;15.60;;;;;;;;;;5045442;28;20452;-96
2021/11/26 01:13:47;;;;;;;75.07;15.43;;;;;;;;;;5039068;28;20998;-96
2021/11/26 01:16:19;;;;;;;71.43;14.40;;;;;;;;;;5041923;28;20454;-96
2021/11/26 01:18:48;;;;;;;73.00;15.60;;;;;;;;;;5046794;28;20435;-96
2021/11/26 01:21:15;;;;;;;72.20;14.10;;;;;;;;;;5047830;28;20439;-92
2021/11/26 01:23:49;;;;;;;73.57;15.37;;;;;;;;;;5049395;28;20450;-96
2021/11/26 01:26:16;;;;;;;74.67;16.03;;;;;;;;;;5047719;28;20448;-96
2021/11/26 01:28:52;;;;;;;71.57;15.17;;;;;;;;;;5051804;28;20871;-96
2021/11/26 01:31:21;;;;;;;73.73;15.70;;;;;;;;;;5040694;28;20451;-94
2021/11/26 01:33:47;;;;;;;73.17;15.83;;;;;;;;;;5046472;28;20554;-93
2021/11/26 01:36:14;;;;;;;74.10;15.43;;;;;;;;;;5045399;28;20813;-94
2021/11/26 01:38:48;;;;;;;73.00;15.67;;;;;;;;;;5046976;28;20466;-96
2021/11/26 01:41:16;;;;;;;73.20;14.30;;;;;;;;;;5051424;28;20471;-95
2021/11/26 01:43:43;;;;;;;73.73;15.30;;;;;;;;;;5046697;28;20554;-96
2021/11/26 01:46:10;;;;;;;73.50;15.10;;;;;;;;;;5044609;28;20529;-96
2021/11/26 01:48:54;;;;;;;73.47;15.23;;;;;;;;;;5053138;28;20538;-96
2021/11/26 01:54:02;;;;;;;73.70;15.63;;;;;;;;;;5172485;22;20477;-95
2021/11/26 01:56:28;;;;;;;73.37;14.97;;;;;;;;;;5089420;28;20509;-96
2021/11/26 01:58:56;;;;;;;73.40;15.67;;;;;;;;;;5087773;28;20480;-96
2021/11/26 02:01:23;;;;;;;70.90;15.20;;;;;;;;;;5091199;28;20489;-96
2021/11/26 02:04:17;;;;;;;72.60;15.67;;;;;;;;;;5120693;22;20499;-96
2021/11/26 02:06:47;;;;;;;73.20;15.40;;;;;;;;;;5038451;28;20446;-96
2021/11/26 02:09:15;;;;;;;75.60;16.07;;;;;;;;;;5034512;28;20435;-96
2021/11/26 02:11:49;;;;;;;76.63;15.00;;;;;;;;;;5039250;28;20447;-96
2021/11/26 02:14:16;;;;;;;75.90;16.67;;;;;;;;;;5035709;28;20472;-96
2021/11/26 02:17:07;;;;;;;74.77;16.67;;;;;;;;;;5035838;28;20446;-96
2021/11/26 02:19:35;;;;;;;75.43;15.57;;;;;;;;;;5045067;28;20426;-96
2021/11/26 02:53:07;;;;;;;73.60;15.80;;;;;;;;;;5400986;22;20508;-96
2021/11/26 02:55:35;;;;;;;75.40;15.40;;;;;;;;;;5084174;28;20515;-96
2021/11/26 03:39:28;;;;;;;71.80;14.40;;;;;;;;;;2646420;22;20505;-96
2021/11/26 03:41:57;;;;;;;71.97;15.07;;;;;;;;;;5050313;28;20462;-96
2021/11/26 03:44:47;;;;;;;72.90;14.60;;;;;;;;;;5063311;22;20499;-96
2021/11/26 03:47:15;;;;;;;74.47;15.43;;;;;;;;;;5053727;28;20446;-96
2021/11/26 03:49:42;;;;;;;73.60;14.77;;;;;;;;;;5053363;28;20450;-95
2021/11/26 03:52:12;;;;;;;71.23;13.90;;;;;;;;;;5064527;28;20445;-96
2021/11/26 03:54:41;;;;;;;73.13;15.73;;;;;;;;;;5196712;22;20867;-96
2021/11/26 04:02:19;;;;;;;72.33;14.97;;;;;;;;;;5169021;22;20492;-96
2021/11/26 04:05:06;;;;;;;72.90;14.87;;;;;;;;;;5058269;28;20435;-96
2021/11/26 04:07:38;;;;;;;70.47;14.60;;;;;;;;;;5056414;28;21067;-96
2021/11/26 04:10:09;;;;;;;71.20;13.90;;;;;;;;;;5056791;28;20446;-94
2021/11/26 04:12:36;;;;;;;71.67;14.57;;;;;;;;;;5055677;28;20478;-96
2021/11/26 04:15:17;;;;;;;72.93;15.13;;;;;;;;;;5058081;28;20521;-96
2021/11/26 04:17:48;;;;;;;72.90;14.47;;;;;;;;;;5056316;28;20442;-94
2021/11/26 04:20:16;;;;;;;70.07;14.30;;;;;;;;;;5058441;28;20510;-96
2021/11/26 04:22:45;;;;;;;71.97;14.37;;;;;;;;;;5058414;28;20439;-96
2021/11/26 04:25:18;;;;;;;71.47;13.70;;;;;;;;;;5059758;28;20486;-96
2021/11/26 04:27:45;;;;;;;70.73;13.97;;;;;;;;;;5060117;28;20447;-96
2021/11/26 04:30:18;;;;;;;73.47;15.20;;;;;;;;;;5056769;28;20577;-94
2021/11/26 04:32:46;;;;;;;72.10;15.03;;;;;;;;;;5055072;28;20446;-94
2021/11/26 04:35:16;;;;;;;71.53;14.60;;;;;;;;;;5052292;28;20477;-96
2021/11/26 04:37:42;;;;;;;70.40;14.10;;;;;;;;;;5056041;28;20451;-95
2021/11/26 04:40:18;;;;;;;71.17;13.80;;;;;;;;;;5054126;28;20427;-96
2021/11/26 04:42:46;;;;;;;70.20;13.50;;;;;;;;;;5053129;28;20437;-95
2021/11/26 04:45:14;;;;;;;71.97;14.40;;;;;;;;;;5053175;28;20518;-95
2021/11/26 04:47:40;;;;;;;71.87;14.47;;;;;;;;;;5058968;28;21151;-96
2021/11/26 04:50:08;;;;;;;71.70;13.70;;;;;;;;;;5057959;28;20530;-94
2021/11/26 04:52:34;;;;;;;71.60;14.27;;;;;;;;;;5057162;28;20438;-96
2021/11/26 04:55:05;;;;;;;71.37;13.57;;;;;;;;;;5055349;28;20492;-96
2021/11/26 04:57:38;;;;;;;68.00;12.83;;;;;;;;;;5054119;28;20446;-95
2021/11/26 05:19:17;;;;;;;74.23;13.80;;;;;;;;;;5220263;22;20498;-96
2021/11/26 05:21:44;;;;;;;70.73;14.70;;;;;;;;;;5056756;28;20426;-96
2021/11/26 05:27:06;;;;;;;69.97;12.90;;;;;;;;;;5037376;28;20557;-96
2021/11/26 05:29:34;;;;;;;72.10;13.83;;;;;;;;;;5040489;28;20447;-96
2021/11/26 05:32:01;;;;;;;70.40;13.90;;;;;;;;;;5039486;28;20450;-95
2021/11/26 05:34:32;;;;;;;68.97;13.60;;;;;;;;;;5042287;28;20476;-96
2021/11/26 05:36:59;;;;;;;71.07;13.97;;;;;;;;;;5038249;28;20498;-96
2021/11/26 05:39:26;;;;;;;70.20;14.57;;;;;;;;;;5037159;28;20455;-96
2021/11/26 05:41:53;;;;;;;70.47;13.77;;;;;;;;;;5032842;28;20475;-92
2021/11/26 05:44:25;;;;;;;70.00;13.73;;;;;;;;;;5067989;22;20502;-96
2021/11/26 05:46:52;;;;;;;71.00;14.30;;;;;;;;;;5049469;28;20506;-95
2021/11/26 05:49:19;;;;;;;71.70;14.90;;;;;;;;;;5047996;28;20443;-96
2021/11/26 05:51:47;;;;;;;72.30;15.10;;;;;;;;;;5045038;28;20451;-96
2021/11/26 05:54:18;;;;;;;70.87;14.13;;;;;;;;;;5037111;28;20490;-95
2021/11/26 05:56:44;;;;;;;72.20;14.23;;;;;;;;;;5046398;28;20443;-94
2021/11/26 05:59:12;;;;;;;73.77;14.87;;;;;;;;;;5059859;23;20498;-96
2021/11/26 06:01:39;;;;;;;71.67;15.17;;;;;;;;;;5055487;28;20454;-95
2021/11/26 06:04:09;;;;;;;76.03;15.43;;;;;;;;;;5061794;28;20442;-96
2021/11/26 06:06:35;;;;;;;72.70;15.00;;;;;;;;;;5056214;28;20447;-94
2021/11/26 06:09:05;;;;;;;73.93;15.90;;;;;;;;;;5104970;22;20509;-93
2021/11/26 06:11:32;;;;;;;73.60;14.77;;;;;;;;;;5068152;28;20451;-96
2021/11/26 06:14:10;;;;;;;76.80;16.67;;;;;;;;;;5067277;28;20454;-95
2021/11/26 06:16:36;;;;;;;74.40;15.10;;;;;;;;;;5062291;28;20477;-95
2021/11/26 06:19:03;;;;;;;70.37;14.03;;;;;;;;;;5067970;28;20448;-95
2021/11/26 06:21:43;;;;;;;72.73;13.97;;;;;;;;;;5065716;28;20465;-95
2021/11/26 06:24:11;;;;;;;73.20;14.27;;;;;;;;;;5076371;22;20490;-95
2021/11/26 06:26:40;;;;;;;74.77;15.70;;;;;;;;;;5069113;28;20436;-96
2021/11/26 06:29:07;;;;;;;76.17;15.10;;;;;;;;;;5067809;28;20482;-94
2021/11/26 06:31:39;;;;;;;70.97;14.23;;;;;;;;;;5110991;22;20616;-96
2021/11/26 06:34:06;;;;;;;71.80;14.80;;;;;;;;;;5059441;22;20520;-96
2021/11/26 06:36:33;;;;;;;71.80;15.00;;;;;;;;;;5031838;28;20494;-94
2021/11/26 06:39:01;;;;;;;73.40;15.30;;;;;;;;;;5032167;28;20499;-95
2021/11/26 06:41:29;;;;;;;74.30;13.07;;;;;;;;;;5034803;28;20498;-92
2021/11/26 06:44:00;;;;;;;71.47;13.80;;;;;;;;;;5031804;28;20451;-94
2021/11/26 06:46:29;;;;;;;73.00;13.40;;;;;;;;;;5037198;28;20454;-95
2021/11/26 06:51:40;;;;;;;74.43;13.23;;;;;;;;;;5049915;22;20491;-93
2021/11/26 06:54:09;;;;;;;70.87;13.77;;;;;;;;;;5036911;28;20448;-96
2021/11/26 06:56:38;;;;;;;73.20;14.40;;;;;;;;;;5036339;28;21171;-94
2021/11/26 06:59:04;;;;;;;71.70;13.83;;;;;;;;;;5036942;28;20455;-96
2021/11/26 07:01:34;;;;;;;71.63;14.20;;;;;;;;;;5033726;28;20451;-96
2021/11/26 07:04:13;;;;;;;73.40;14.40;;;;;;;;;;5038413;28;20435;-93
2021/11/26 07:06:40;;;;;;;86.87;14.10;;;;;;;;;;5039171;28;20531;-92
2021/11/26 07:09:20;;;;;;;70.07;13.67;;;;;;;;;;5040369;28;20478;-96
2021/11/26 07:12:00;;;;;;;72.07;14.43;;;;;;;;;;5038916;28;20523;-96
2021/11/26 07:14:30;;;;;;;73.07;14.60;;;;;;;;;;5036053;28;20519;-96
2021/11/26 07:16:57;;;;;;;70.50;13.77;;;;;;;;;;5037392;28;20427;-94
2021/11/26 07:19:24;;;;;;;73.63;14.73;;;;;;;;;;5033098;28;20479;-95
2021/11/26 07:22:03;;;;;;;72.43;13.93;;;;;;;;;;5032044;28;20449;-96
2021/11/26 07:24:30;;;;;;;73.70;14.67;;;;;;;;;;5031094;28;20455;-96
2021/11/26 07:27:01;;;;;;;76.17;16.20;;;;;;;;;;5033393;28;20443;-94
2021/11/26 07:32:16;;;;;;;73.67;14.47;;;;;;;;;;5039166;28;20470;-96
2021/11/26 07:34:47;;;;;;;73.90;15.57;;;;;;;;;;5054173;22;20461;-95
2021/11/26 07:37:20;;;;;;;78.13;15.63;;;;;;;;;;5071644;28;20450;-96
2021/11/26 07:39:48;;;;;;;72.30;13.63;;;;;;;;;;5067722;28;20485;-96
2021/11/26 07:42:19;;;;;;;71.83;12.60;;;;;;;;;;5072711;28;20449;-96
2021/11/26 07:47:29;;;;;;;73.07;14.20;;;;;;;;;;5067392;28;20537;-95
2021/11/26 07:50:02;;;;;;;71.87;14.57;;;;;;;;;;5073361;28;20432;-96
2021/11/26 07:52:29;;;;;;;71.70;14.17;;;;;;;;;;5073712;28;20506;-96
2021/11/26 07:54:56;;;;;;;71.30;13.20;;;;;;;;;;5071753;28;20475;-95
2021/11/26 07:57:27;;;;;;;73.77;15.10;;;;;;;;;;5067385;28;20442;-95
2021/11/26 07:59:55;;;;;;;72.60;14.80;;;;;;;;;;5064716;28;20447;-95
2021/11/26 08:02:23;;;;;;;72.00;14.57;;;;;;;;;;5061314;28;20789;-96
2021/11/26 08:04:55;;;;;;;72.10;14.20;;;;;;;;;;5062978;28;20541;-96
2021/11/26 08:07:22;;;;;;;71.10;14.63;;;;;;;;;;5063582;28;21024;-94
2021/11/26 08:09:49;;;;;;;72.47;14.60;;;;;;;;;;5060384;28;20441;-94
2021/11/26 08:12:16;;;;;;;73.90;16.53;;;;;;;;;;5064134;28;20446;-95
2021/11/26 08:14:50;;;;;;;75.10;17.07;;;;;;;;;;5069391;28;20438;-96
2021/11/26 08:17:17;;;;;;;72.97;15.27;;;;;;;;;;5065133;28;20620;-94
2021/11/26 08:19:47;;;;;;;74.40;15.17;;;;;;;;;;5064365;28;20458;-96
2021/11/26 08:22:35;;;;;;;70.33;13.53;;;;;;;;;;5067497;28;20464;-96
2021/11/26 08:25:01;;;;;;;73.40;13.50;;;;;;;;;;5067544;28;20449;-94
2021/11/26 08:27:31;;;;;;;72.07;13.30;;;;;;;;;;5067617;28;20441;-96
2021/11/26 08:30:17;;;;;;;69.40;12.53;;;;;;;;;;5072279;28;20417;-96
2021/11/26 08:32:47;;;;;;;69.80;12.67;;;;;;;;;;5083604;22;20495;-95
2021/11/26 08:35:14;;;;;;;69.47;12.67;;;;;;;;;;5067959;28;20472;-93
2021/11/26 08:37:41;;;;;;;70.27;13.13;;;;;;;;;;5071826;28;20458;-96
2021/11/26 08:40:23;;;;;;;70.30;13.97;;;;;;;;;;5085576;22;20497;-94
2021/11/26 08:42:52;;;;;;;70.33;13.20;;;;;;;;;;5091433;28;20429;-96
2021/11/26 08:45:41;;;;;;;;;;;;;;;;;;;;;
2021/11/26 08:53:20;;;;;;;73.17;15.57;;;;;;;;;;5062480;28;20510;-93
2021/11/26 08:55:55;;;;;;;71.07;14.30;;;;;;;;;;5059827;28;20528;-96
2021/11/26 08:58:55;;;;;;;73.37;15.23;;;;;;;;;;5057422;28;22049;-94
2021/11/26 09:04:53;;;;;;;74.57;15.80;;;;;;;;;;5203532;22;20493;-96
2021/11/26 09:07:20;;;;;;;70.03;14.47;;;;;;;;;;5166476;22;20593;-95
2021/11/26 09:12:27;;;;;;;70.43;13.97;;;;;;;;;;5269964;22;20492;-94
2021/11/26 09:18:02;;;;;;;72.40;14.07;;;;;;;;;;5047481;28;20478;-96
2021/11/26 09:23:15;;;;;;;70.47;13.80;;;;;;;;;;5070101;28;20493;-95
2021/11/26 09:25:49;;;;;;;72.43;14.70;;;;;;;;;;5069194;28;20445;-95
2021/11/26 09:31:29;;;;;;;70.07;13.20;;;;;;;;;;5074710;28;20427;-96
2021/11/26 09:33:56;;;;;;;71.70;13.50;;;;;;;;;;5068255;28;20530;-94
2021/11/26 09:36:57;;;;;;;70.53;13.40;;;;;;;;;;5089026;22;20767;-96
2021/11/26 09:39:30;;;;;;;68.80;13.30;;;;;;;;;;5132634;22;20528;-96
2021/11/26 09:42:14;;;;;;;69.37;12.87;;;;;;;;;;5061947;23;20544;-96
2021/11/26 09:45:11;;;;;;;67.90;13.60;;;;;;;;;;5142614;22;20479;-96
2021/11/26 09:47:38;;;;;;;69.70;12.87;;;;;;;;;;5086273;28;20558;-95
2021/11/26 09:50:13;;;;;;;69.27;13.47;;;;;;;;;;5085593;28;20443;-96
2021/11/26 09:52:47;;;;;;;67.97;13.73;;;;;;;;;;5085366;28;20464;-94
2021/11/26 09:55:26;;;;;;;68.13;12.67;;;;;;;;;;5088638;28;20440;-95
2021/11/26 09:57:52;;;;;;;67.67;12.77;;;;;;;;;;5087305;28;20486;-96
2021/11/26 10:00:27;;;;;;;68.10;13.07;;;;;;;;;;5087691;28;20495;-96
2021/11/26 10:02:57;;;;;;;68.30;12.93;;;;;;;;;;5084638;28;20521;-96
2021/11/26 10:05:25;;;;;;;69.60;12.67;;;;;;;;;;5089618;28;20439;-95
2021/11/26 10:07:54;;;;;;;68.90;12.97;;;;;;;;;;5089124;28;20938;-94
2021/11/26 10:10:26;;;;;;;68.97;12.27;;;;;;;;;;5090698;28;20441;-96
2021/11/26 10:12:59;;;;;;;66.17;12.23;;;;;;;;;;5086811;28;20457;-94
2021/11/26 10:15:32;;;;;;;68.80;12.40;;;;;;;;;;5081715;28;20447;-95
2021/11/26 10:18:39;;;;;;;69.87;12.20;;;;;;;;;;5082401;28;20450;-93
2021/11/26 10:21:09;;;;;;;69.60;12.43;;;;;;;;;;5083596;28;20453;-96
2021/11/26 10:23:49;;;;;;;67.47;12.60;;;;;;;;;;5085682;28;20474;-96
2021/11/26 10:26:16;;;;;;;78.23;13.57;;;;;;;;;;5106320;22;20485;-93
2021/11/26 10:28:46;;;;;;;66.67;11.87;;;;;;;;;;5085566;28;20442;-94
2021/11/26 10:31:22;;;;;;;66.50;12.20;;;;;;;;;;5074928;28;20494;-92
2021/11/26 10:33:56;;;;;;;67.03;11.37;;;;;;;;;;5085547;28;20455;-94
2021/11/26 10:36:27;;;;;;;66.40;12.27;;;;;;;;;;5086507;28;20482;-94
2021/11/26 10:38:59;;;;;;;66.67;12.30;;;;;;;;;;5078998;28;20418;-96
2021/11/26 10:41:31;;;;;;;65.90;11.50;;;;;;;;;;5084997;28;20461;-96
2021/11/26 10:44:14;;;;;;;68.70;12.53;;;;;;;;;;5085304;28;20462;-96
2021/11/26 10:47:02;;;;;;;68.50;12.90;;;;;;;;;;5085298;28;20423;-95
2021/11/26 10:58:34;;;;;;;67.20;12.03;;;;;;;;;;5090467;28;20469;-93
2021/11/26 11:01:07;;;;;;;69.90;12.97;;;;;;;;;;5084357;28;20513;-95
2021/11/26 11:03:35;;;;;;;66.57;12.90;;;;;;;;;;5085723;28;20450;-95
2021/11/26 11:06:20;;;;;;;68.77;13.47;;;;;;;;;;5086867;28;20449;-96
2021/11/26 11:08:47;;;;;;;68.27;13.13;;;;;;;;;;5084266;28;20451;-95
2021/11/26 11:11:28;;;;;;;70.30;13.27;;;;;;;;;;5087293;28;20450;-96
2021/11/26 11:17:06;;;;;;;68.67;13.30;;;;;;;;;;5066447;28;20551;-96
2021/11/26 11:19:33;;;;;;;67.63;13.30;;;;;;;;;;5067183;28;20467;-96
2021/11/26 11:22:03;;;;;;;67.60;12.77;;;;;;;;;;5067437;28;20473;-94
2021/11/26 11:24:32;;;;;;;68.37;13.10;;;;;;;;;;5095599;22;20501;-95
2021/11/26 11:27:18;;;;;;;69.37;13.57;;;;;;;;;;5048407;28;20452;-96
2021/11/26 11:29:50;;;;;;;67.17;12.87;;;;;;;;;;5048806;28;20455;-96
2021/11/26 11:34:59;;;;;;;67.00;12.37;;;;;;;;;;5048480;28;20449;-93
2021/11/26 11:37:29;;;;;;;68.27;13.67;;;;;;;;;;5055030;22;20500;-96
2021/11/26 11:40:07;;;;;;;68.47;12.80;;;;;;;;;;5171338;22;20502;-96
2021/11/26 11:42:47;;;;;;;67.77;12.60;;;;;;;;;;5028180;28;20453;-96
2021/11/26 11:47:56;;;;;;;68.05;12.63;;;;;;;;;;5105819;22;20473;-94
2021/11/26 11:53:40;;;;;;;67.47;12.47;;;;;;;;;;5043724;28;20515;-94
2021/11/26 11:56:12;;;;;;;68.27;12.90;;;;;;;;;;5049721;28;20474;-96
2021/11/26 12:01:54;;;;;;;67.37;12.33;;;;;;;;;;5047817;28;20717;-96
2021/11/26 12:04:34;;;;;;;66.20;11.53;;;;;;;;;;5048442;28;20497;-95
2021/11/26 12:07:04;;;;;;;66.70;12.23;;;;;;;;;;5049306;28;20463;-96
2021/11/26 12:12:23;;;;;;;67.17;12.50;;;;;;;;;;5046793;28;20438;-96
2021/11/26 12:14:59;;;;;;;66.17;11.60;;;;;;;;;;5052089;28;20449;-93
2021/11/26 12:17:36;;;;;;;67.73;12.67;;;;;;;;;;5052510;28;20507;-93
2021/11/26 12:20:10;;;;;;;68.80;12.57;;;;;;;;;;5122421;22;20492;-96
2021/11/26 12:22:47;;;;;;;67.43;12.27;;;;;;;;;;5054809;28;20522;-96
2021/11/26 12:25:48;;;;;;;66.73;12.77;;;;;;;;;;5056002;28;20433;-94
2021/11/26 12:28:20;;;;;;;69.30;12.07;;;;;;;;;;5051996;28;20453;-96
2021/11/26 12:30:58;;;;;;;66.70;12.00;;;;;;;;;;5041215;28;20449;-96
2021/11/26 12:33:39;;;;;;;66.37;12.37;;;;;;;;;;5048651;28;20450;-96
2021/11/26 12:36:08;;;;;;;66.60;12.20;;;;;;;;;;5073655;22;20455;-96
2021/11/26 12:38:49;;;;;;;64.87;11.20;;;;;;;;;;5021455;28;20460;-95
2021/11/26 12:41:31;;;;;;;65.30;11.27;;;;;;;;;;5017907;28;20522;-92
2021/11/26 12:44:06;;;;;;;65.80;11.60;;;;;;;;;;5084742;23;20555;-95
2021/11/26 12:52:06;;;;;;;67.70;10.63;;;;;;;;;;4999802;28;20450;-94
2021/11/26 12:54:36;;;;;;;65.90;11.70;;;;;;;;;;5048828;28;20446;-96
2021/11/26 12:57:05;;;;;;;65.37;11.97;;;;;;;;;;5043984;28;20501;-96
2021/11/26 12:59:44;;;;;;;64.80;11.30;;;;;;;;;;5044669;28;20450;-95
2021/11/26 13:02:33;;;;;;;65.37;11.23;;;;;;;;;;5047760;28;20466;-96
2021/11/26 13:05:02;;;;;;;65.70;10.43;;;;;;;;;;5047398;28;20461;-95
2021/11/26 13:07:29;;;;;;;65.50;11.33;;;;;;;;;;5050648;28;20420;-92
2021/11/26 13:13:03;;;;;;;66.37;11.20;;;;;;;;;;5046712;28;20459;-96
2021/11/26 13:15:34;;;;;;;65.00;10.83;;;;;;;;;;5047747;28;20441;-94
2021/11/26 13:18:01;;;;;;;64.43;10.80;;;;;;;;;;5041243;28;20496;-95
2021/11/26 13:20:29;;;;;;;64.70;11.10;;;;;;;;;;5040247;28;21081;-96
2021/11/26 13:22:58;;;;;;;64.97;10.83;;;;;;;;;;5042672;28;20439;-94
2021/11/26 13:25:25;;;;;;;64.47;11.20;;;;;;;;;;5040654;28;20456;-95
2021/11/26 13:27:54;;;;;;;64.77;11.00;;;;;;;;;;5045008;28;20447;-95
2021/11/26 13:30:24;;;;;;;66.27;11.50;;;;;;;;;;5043437;28;20449;-93
2021/11/26 13:33:02;;;;;;;64.50;10.90;;;;;;;;;;5045593;28;20451;-94
2021/11/26 13:35:29;;;;;;;65.60;11.20;;;;;;;;;;5042901;28;20477;-92
2021/11/26 13:37:57;;;;;;;65.43;11.50;;;;;;;;;;5040780;28;20496;-94
2021/11/26 13:40:35;;;;;;;64.70;10.60;;;;;;;;;;5043883;28;20525;-95
2021/11/26 13:43:05;;;;;;;65.43;11.10;;;;;;;;;;5045618;28;20457;-96
2021/11/26 13:45:35;;;;;;;65.37;11.83;;;;;;;;;;5041886;28;20941;-94
2021/11/26 13:48:02;;;;;;;66.77;11.10;;;;;;;;;;5043129;28;20449;-96
2021/11/26 13:50:28;;;;;;;66.60;12.10;;;;;;;;;;5041948;28;20468;-93
2021/11/26 13:52:55;;;;;;;68.10;11.53;;;;;;;;;;5043586;28;20449;-96
2021/11/26 13:55:25;;;;;;;65.80;11.33;;;;;;;;;;5040598;28;20454;-94
2021/11/26 13:58:05;;;;;;;66.33;12.07;;;;;;;;;;5047067;28;20483;-96
2021/11/26 14:00:31;;;;;;;67.13;12.63;;;;;;;;;;5045337;28;20510;-95
2021/11/26 14:02:59;;;;;;;66.60;11.90;;;;;;;;;;5035877;28;20482;-95
2021/11/26 14:05:27;;;;;;;66.00;11.87;;;;;;;;;;5039623;28;20501;-96
2021/11/26 14:07:59;;;;;;;65.40;11.37;;;;;;;;;;5041402;28;20441;-96
2021/11/26 14:10:26;;;;;;;65.57;11.77;;;;;;;;;;5040925;28;20473;-95
2021/11/26 14:12:56;;;;;;;66.47;12.30;;;;;;;;;;5044628;28;20442;-96
2021/11/26 14:15:23;;;;;;;67.43;12.20;;;;;;;;;;5038553;28;20462;-96
2021/11/26 14:17:50;;;;;;;66.67;12.20;;;;;;;;;;5038701;28;20486;-96
2021/11/26 14:20:23;;;;;;;67.43;11.50;;;;;;;;;;5037619;28;21129;-94
2021/11/26 14:22:49;;;;;;;68.97;11.67;;;;;;;;;;5039031;28;20517;-96
2021/11/26 14:25:16;;;;;;;67.07;12.47;;;;;;;;;;5039504;28;20439;-96
2021/11/26 14:27:44;;;;;;;65.60;11.60;;;;;;;;;;5039535;28;20450;-95
2021/11/26 14:30:11;;;;;;;67.10;12.93;;;;;;;;;;5038481;28;20513;-94
2021/11/26 14:32:39;;;;;;;66.50;12.00;;;;;;;;;;5039831;28;20453;-93
2021/11/26 14:35:20;;;;;;;67.17;12.70;;;;;;;;;;5042442;28;20521;-96
2021/11/26 14:37:54;;;;;;;69.40;12.23;;;;;;;;;;5045079;28;20453;-96
2021/11/26 14:40:22;;;;;;;66.07;12.43;;;;;;;;;;5040521;28;20507;-94
2021/11/26 14:42:50;;;;;;;67.60;12.03;;;;;;;;;;5050452;28;20438;-96
2021/11/26 14:45:37;;;;;;;66.63;12.20;;;;;;;;;;5045221;28;20446;-95
2021/11/26 14:48:12;;;;;;;66.20;11.93;;;;;;;;;;5038873;28;20456;-94
2021/11/26 14:50:39;;;;;;;67.90;12.80;;;;;;;;;;5035424;28;20492;-95
2021/11/26 14:53:11;;;;;;;67.10;12.23;;;;;;;;;;5036313;28;20922;-95
2021/11/26 14:55:37;;;;;;;68.07;12.77;;;;;;;;;;5035724;28;20484;-91
2021/11/26 14:58:05;;;;;;;70.73;12.40;;;;;;;;;;5030781;28;20498;-95
2021/11/26 15:06:10;;;;;;;67.70;12.20;;;;;;;;;;5108376;22;20530;-95
2021/11/26 15:08:40;;;;;;;68.17;12.20;;;;;;;;;;5042327;28;20435;-96
2021/11/26 15:11:08;;;;;;;67.77;12.10;;;;;;;;;;5043267;28;20449;-96
2021/11/26 15:13:39;;;;;;;67.03;12.17;;;;;;;;;;5131660;22;20462;-96
2021/11/26 15:16:15;;;;;;;68.20;12.57;;;;;;;;;;5044237;28;20446;-95
2021/11/26 15:18:42;;;;;;;67.87;13.00;;;;;;;;;;5042984;28;20547;-95
2021/11/26 15:21:11;;;;;;;69.50;13.30;;;;;;;;;;5046169;28;20455;-95
2021/11/26 15:23:49;;;;;;;68.33;12.70;;;;;;;;;;5046948;28;20497;-95
2021/11/26 15:26:16;;;;;;;70.57;14.03;;;;;;;;;;5044017;28;20446;-92
2021/11/26 15:28:42;;;;;;;68.20;12.40;;;;;;;;;;5038006;28;20975;-93
2021/11/26 15:31:09;;;;;;;66.47;11.77;;;;;;;;;;5037626;28;20449;-92
2021/11/26 15:33:35;;;;;;;69.67;12.43;;;;;;;;;;5037365;28;20451;-92
2021/11/26 15:36:03;;;;;;;67.07;12.03;;;;;;;;;;5039806;28;20456;-96
2021/11/26 15:38:34;;;;;;;67.00;11.90;;;;;;;;;;5039246;28;20499;-94
2021/11/26 15:41:02;;;;;;;66.00;11.90;;;;;;;;;;5042546;28;20445;-94
2021/11/26 15:43:28;;;;;;;66.17;11.83;;;;;;;;;;5040458;28;20452;-94
2021/11/26 15:45:55;;;;;;;65.87;11.50;;;;;;;;;;5042644;28;20449;-92
2021/11/26 15:48:25;;;;;;;66.30;11.67;;;;;;;;;;5051732;22;20445;-94
2021/11/26 15:50:53;;;;;;;66.97;12.20;;;;;;;;;;5042931;28;20452;-95
2021/11/26 15:53:20;;;;;;;66.67;11.37;;;;;;;;;;5043332;28;20460;-95
2021/11/26 15:55:46;;;;;;;68.17;12.40;;;;;;;;;;5044093;28;20441;-92
2021/11/26 15:58:14;;;;;;;70.07;14.63;;;;;;;;;;5044173;28;20500;-95
2021/11/26 16:00:50;;;;;;;66.73;11.90;;;;;;;;;;5045709;28;20541;-95
2021/11/26 16:03:17;;;;;;;70.57;15.40;;;;;;;;;;5049094;28;20420;-92
2021/11/26 16:05:44;;;;;;;66.87;11.97;;;;;;;;;;5045481;28;20465;-94
2021/11/26 16:08:11;;;;;;;70.10;15.60;;;;;;;;;;5044392;28;20448;-93
2021/11/26 16:13:31;;;;;;;66.47;10.77;;;;;;;;;;5047879;28;20445;-96
2021/11/26 16:16:06;;;;;;;67.70;11.90;;;;;;;;;;5032951;28;20443;-95
2021/11/26 16:18:34;;;;;;;68.20;11.17;;;;;;;;;;5048031;28;20477;-96
2021/11/26 16:21:05;;;;;;;65.80;11.20;;;;;;;;;;5050355;28;20470;-94
2021/11/26 16:23:36;;;;;;;67.23;11.70;;;;;;;;;;5045148;28;20457;-96
2021/11/26 16:26:10;;;;;;;66.97;11.90;;;;;;;;;;5045727;28;20436;-95
2021/11/26 16:28:40;;;;;;;69.07;12.50;;;;;;;;;;5044862;28;20460;-95
2021/11/26 16:31:38;;;;;;;67.00;11.67;;;;;;;;;;5076619;22;20515;-94
2021/11/26 16:34:12;;;;;;;68.53;12.00;;;;;;;;;;5046866;28;20432;-96
2021/11/26 16:39:30;;;;;;;67.30;11.20;;;;;;;;;;5045344;28;20481;-96
2021/11/26 16:41:57;;;;;;;67.70;11.27;;;;;;;;;;5044365;28;20448;-96
2021/11/26 16:44:59;;;;;;;67.90;11.90;;;;;;;;;;5050253;28;20422;-96
2021/11/26 16:47:27;;;;;;;68.83;12.30;;;;;;;;;;5055646;22;20483;-95
2021/11/26 16:49:54;;;;;;;67.50;12.43;;;;;;;;;;5070847;22;20508;-94
2021/11/26 16:52:27;;;;;;;66.50;11.63;;;;;;;;;;5050374;28;20463;-96
2021/11/26 16:57:41;;;;;;;74.10;15.27;;;;;;;;;;5052167;28;20515;-96
2021/11/26 17:00:08;;;;;;;71.47;14.17;;;;;;;;;;5068636;22;20500;-94
2021/11/26 17:02:39;;;;;;;70.00;13.37;;;;;;;;;;5029577;28;20454;-95
2021/11/26 17:05:06;;;;;;;68.97;13.27;;;;;;;;;;5024570;28;20451;-95
2021/11/26 17:07:35;;;;;;;66.17;12.20;;;;;;;;;;5025271;28;20469;-96
2021/11/26 17:10:22;;;;;;;68.67;11.63;;;;;;;;;;5047968;23;20511;-96
2021/11/26 17:12:55;;;;;;;69.63;12.97;;;;;;;;;;5042448;28;20440;-96
2021/11/26 17:15:38;;;;;;;66.20;11.57;;;;;;;;;;5045390;28;20460;-94
2021/11/26 17:18:10;;;;;;;66.87;11.00;;;;;;;;;;5042778;28;20472;-96
2021/11/26 17:20:39;;;;;;;66.40;11.47;;;;;;;;;;5060875;22;20500;-96
2021/11/26 17:23:17;;;;;;;68.37;11.53;;;;;;;;;;5043780;28;20459;-96
2021/11/26 17:25:44;;;;;;;68.70;12.60;;;;;;;;;;5048096;28;20435;-94
2021/11/26 17:28:14;;;;;;;68.10;11.93;;;;;;;;;;5041284;28;20445;-96
2021/11/26 17:30:41;;;;;;;66.17;11.30;;;;;;;;;;5041959;28;20464;-95
2021/11/26 17:33:08;;;;;;;65.60;10.77;;;;;;;;;;5044543;28;21036;-91
2021/11/26 17:35:45;;;;;;;66.97;11.50;;;;;;;;;;5049366;28;20434;-96
2021/11/26 17:40:47;;;;;;;66.40;11.13;;;;;;;;;;5044974;26;21440;-95
2021/11/26 17:43:14;;;;;;;67.10;12.00;;;;;;;;;;5046977;28;20448;-95
2021/11/26 17:45:41;;;;;;;65.80;10.80;;;;;;;;;;5042995;28;20479;-96
2021/11/26 17:48:16;;;;;;;66.60;11.10;;;;;;;;;;5056753;22;20490;-96
2021/11/26 17:50:51;;;;;;;65.80;11.60;;;;;;;;;;5048839;28;20452;-96
2021/11/26 17:53:18;;;;;;;66.07;11.20;;;;;;;;;;5047849;28;20432;-96
2021/11/26 17:55:50;;;;;;;65.13;10.90;;;;;;;;;;5047825;28;20457;-95